createdAt,value
2023-01-18T00:01:13.986Z,25.42
2023-01-18T00:03:42.330Z,27.13
2023-01-18T00:06:11.018Z,27.55
2023-01-18T00:08:39.998Z,23.60
2023-01-18T00:11:15.964Z,24.95
2023-01-18T00:13:43.886Z,25.35
2023-01-18T00:16:17.962Z,25.55
2023-01-18T00:18:54.268Z,20.65
2023-01-18T00:21:21.845Z,24.63
2023-01-18T00:23:49.687Z,23.90
2023-01-18T00:26:16.990Z,22.90
2023-01-18T00:28:44.671Z,23.23
2023-01-18T00:31:12.872Z,22.58
2023-01-18T00:33:43.571Z,24.10
2023-01-18T00:36:11.419Z,22.25
2023-01-18T00:38:38.736Z,24.33
2023-01-18T00:41:05.849Z,25.33
2023-01-18T00:43:39.235Z,25.42
2023-01-18T00:46:12.282Z,26.85
2023-01-18T00:48:40.878Z,25.85
2023-01-18T00:51:14.332Z,25.63
2023-01-18T00:53:44.042Z,26.92
2023-01-18T00:56:14.786Z,27.23
2023-01-18T00:58:42.929Z,27.95
2023-01-18T01:01:11.283Z,29.25
2023-01-18T01:03:57.559Z,27.45
2023-01-18T01:06:44.406Z,28.02
2023-01-18T01:12:09.850Z,27.05
2023-01-18T01:15:01.561Z,27.80
2023-01-18T01:17:48.850Z,29.80
2023-01-18T01:23:31.195Z,27.63
2023-01-18T01:26:24.830Z,30.92
2023-01-18T01:28:53.260Z,31.50
2023-01-18T01:31:21.061Z,31.45
2023-01-18T01:33:50.840Z,29.98
2023-01-18T01:36:20.836Z,27.55
2023-01-18T01:38:47.872Z,30.05
2023-01-18T01:41:20.472Z,32.17
2023-01-18T01:43:48.764Z,29.13
2023-01-18T01:46:35.019Z,31.05
2023-01-18T01:49:10.090Z,29.05
2023-01-18T01:51:41.701Z,32.30
2023-01-18T01:54:31.784Z,30.30
2023-01-18T01:57:10.935Z,31.35
2023-01-18T01:59:42.611Z,31.45
2023-01-18T02:02:11.624Z,35.67
2023-01-18T02:04:44.157Z,31.73
2023-01-18T02:07:12.447Z,32.80
2023-01-18T02:09:40.215Z,31.88
2023-01-18T02:12:07.662Z,30.88
2023-01-18T02:14:35.941Z,31.90
2023-01-18T02:17:41.422Z,32.60
2023-01-18T02:20:29.558Z,32.40
2023-01-18T02:23:33.270Z,31.42
2023-01-18T02:26:32.230Z,33.88
2023-01-18T02:29:17.614Z,33.40
2023-01-18T02:31:53.675Z,33.42
2023-01-18T02:34:44.335Z,30.80
2023-01-18T02:37:32.086Z,32.35
2023-01-18T02:40:38.821Z,34.33
2023-01-18T02:43:28.261Z,33.50
2023-01-18T02:46:15.563Z,32.47
2023-01-18T02:48:44.983Z,32.88
2023-01-18T02:51:12.486Z,33.97
2023-01-18T02:53:43.580Z,35.25
2023-01-18T02:56:15.960Z,31.88
2023-01-18T02:58:59.016Z,32.72
2023-01-18T03:01:45.888Z,34.08
2023-01-18T03:04:21.949Z,35.43
2023-01-18T03:06:57.509Z,33.78
2023-01-18T03:09:27.327Z,33.08
2023-01-18T03:12:08.703Z,35.42
2023-01-18T03:15:13.104Z,32.25
2023-01-18T03:17:53.210Z,31.75
2023-01-18T03:20:27.682Z,33.88
2023-01-18T03:23:25.440Z,32.78
2023-01-18T03:25:56.211Z,33.65
2023-01-18T03:28:58.762Z,34.10
2023-01-18T03:32:00.309Z,30.23
2023-01-18T03:34:42.740Z,31.42
2023-01-18T03:37:17.972Z,35.47
2023-01-18T03:39:51.675Z,35.10
2023-01-18T03:42:24.456Z,33.33
2023-01-18T03:45:06.081Z,34.13
2023-01-18T03:47:33.452Z,35.55
2023-01-18T03:50:01.269Z,36.42
2023-01-18T03:52:42.519Z,33.85
2023-01-18T03:55:19.257Z,36.05
2023-01-18T03:57:57.365Z,35.67
2023-01-18T04:00:25.689Z,33.40
2023-01-18T04:02:52.940Z,36.08
2023-01-18T04:05:20.416Z,34.38
2023-01-18T04:07:47.569Z,32.97
2023-01-18T04:10:15.349Z,33.88
2023-01-18T04:12:42.460Z,34.40
2023-01-18T04:15:10.273Z,30.42
2023-01-18T04:17:37.396Z,31.02
2023-01-18T04:20:05.562Z,30.58
2023-01-18T04:22:32.735Z,30.83
2023-01-18T04:25:00.063Z,32.90
2023-01-18T04:27:27.129Z,30.08
2023-01-18T04:29:54.425Z,29.23
2023-01-18T04:32:21.641Z,29.70
2023-01-18T04:34:49.057Z,32.58
2023-01-18T04:37:16.186Z,30.25
2023-01-18T04:39:43.491Z,33.47
2023-01-18T04:42:10.753Z,32.05
2023-01-18T04:44:38.107Z,33.25
2023-01-18T04:47:05.237Z,30.70
2023-01-18T04:49:32.592Z,30.27
2023-01-18T04:51:59.671Z,32.22
2023-01-18T04:54:28.132Z,31.10
2023-01-18T04:56:55.239Z,30.75
2023-01-18T04:59:22.682Z,31.75
2023-01-18T05:01:49.768Z,31.08
2023-01-18T05:04:17.340Z,28.30
2023-01-18T05:06:44.623Z,28.48
2023-01-18T05:09:12.565Z,31.05
2023-01-18T05:11:39.737Z,29.52
2023-01-18T05:14:07.207Z,30.77
2023-01-18T05:16:34.521Z,28.67
2023-01-18T05:19:01.828Z,27.98
2023-01-18T05:21:28.940Z,28.30
2023-01-18T05:23:56.318Z,30.40
2023-01-18T05:26:24.404Z,31.05
2023-01-18T05:28:57.177Z,29.92
2023-01-18T05:31:24.916Z,26.90
2023-01-18T05:33:52.431Z,29.40
2023-01-18T05:36:19.644Z,29.75
2023-01-18T05:38:47.806Z,29.05
2023-01-18T05:41:15.210Z,26.23
2023-01-18T05:43:42.831Z,26.67
2023-01-18T05:46:10.188Z,26.27
2023-01-18T05:48:37.856Z,27.08
2023-01-18T05:51:09.367Z,25.58
2023-01-18T05:53:37.063Z,28.08
2023-01-18T05:56:06.687Z,27.83
2023-01-18T05:58:34.581Z,25.77
2023-01-18T06:01:01.760Z,26.13
2023-01-18T06:03:29.248Z,26.17
2023-01-18T06:05:57.801Z,27.55
2023-01-18T06:08:25.521Z,26.60
2023-01-18T06:10:56.977Z,24.38
2023-01-18T06:13:25.089Z,26.42
2023-01-18T06:15:54.693Z,25.40
2023-01-18T06:18:23.501Z,24.23
2023-01-18T06:20:54.737Z,23.83
2023-01-18T06:23:22.242Z,23.13
2023-01-18T06:25:49.396Z,23.73
2023-01-18T06:28:17.454Z,24.35
2023-01-18T06:30:44.508Z,23.92
2023-01-18T06:33:12.144Z,22.90
2023-01-18T06:35:39.731Z,21.88
2023-01-18T06:38:07.259Z,20.90
2023-01-18T06:40:34.439Z,20.52
2023-01-18T06:43:02.217Z,22.08
2023-01-18T06:45:29.743Z,20.45
2023-01-18T06:47:57.238Z,19.02
2023-01-18T06:50:24.459Z,20.65
2023-01-18T06:52:52.309Z,19.58
2023-01-18T06:55:22.329Z,19.17
2023-01-18T06:57:49.729Z,18.48
2023-01-18T07:00:17.481Z,18.45
2023-01-18T07:02:45.249Z,19.35
2023-01-18T07:05:12.606Z,19.73
2023-01-18T07:07:40.051Z,19.42
2023-01-18T07:10:07.717Z,20.48
2023-01-18T07:12:35.768Z,18.58
2023-01-18T07:15:16.469Z,18.85
2023-01-18T07:17:50.452Z,19.50
2023-01-18T07:20:20.795Z,18.52
2023-01-18T07:22:53.952Z,19.20
2023-01-18T07:25:21.453Z,19.20
2023-01-18T07:27:49.286Z,19.25
2023-01-18T07:30:17.186Z,19.15
2023-01-18T07:32:51.735Z,20.77
2023-01-18T07:35:22.137Z,21.15
2023-01-18T07:37:52.295Z,21.33
2023-01-18T07:40:23.016Z,20.58
2023-01-18T07:42:57.952Z,20.92
2023-01-18T07:45:25.225Z,20.15
2023-01-18T07:47:53.470Z,20.50
2023-01-18T07:50:22.341Z,19.73
2023-01-18T07:52:49.828Z,19.85
2023-01-18T07:55:16.905Z,15.88
2023-01-18T07:57:44.589Z,15.98
2023-01-18T08:00:12.489Z,18.67
2023-01-18T08:02:42.520Z,16.05
2023-01-18T08:05:10.704Z,14.98
2023-01-18T08:07:38.118Z,14.48
2023-01-18T08:10:05.813Z,15.75
2023-01-18T08:12:33.124Z,15.35
2023-01-18T08:15:00.819Z,13.90
2023-01-18T08:17:29.790Z,14.43
2023-01-18T08:19:57.082Z,16.17
2023-01-18T08:22:24.416Z,15.10
2023-01-18T08:24:51.513Z,12.57
2023-01-18T08:27:19.496Z,10.98
2023-01-18T08:29:48.193Z,12.13
2023-01-18T08:32:16.091Z,10.45
2023-01-18T08:34:46.139Z,11.27
2023-01-18T08:37:13.522Z,10.35
2023-01-18T08:39:40.616Z,12.27
2023-01-18T08:42:10.802Z,11.30
2023-01-18T08:44:37.898Z,12.38
2023-01-18T08:47:05.415Z,10.93
2023-01-18T08:49:32.785Z,10.60
2023-01-18T08:52:00.136Z,11.45
2023-01-18T08:54:27.291Z,9.65
2023-01-18T08:56:54.687Z,8.90
2023-01-18T08:59:22.699Z,8.70
2023-01-18T09:01:50.178Z,8.65
2023-01-18T09:04:17.300Z,8.73
2023-01-18T09:06:46.409Z,9.13
2023-01-18T09:09:13.593Z,8.73
2023-01-18T09:11:40.965Z,7.97
2023-01-18T09:14:08.018Z,8.77
2023-01-18T09:16:35.402Z,8.38
2023-01-18T09:19:06.298Z,7.38
2023-01-18T09:21:34.375Z,6.95
2023-01-18T09:24:01.839Z,6.95
2023-01-18T09:26:30.519Z,7.40
2023-01-18T09:28:57.768Z,8.13
2023-01-18T09:31:27.636Z,7.13
2023-01-18T09:33:57.377Z,7.32
2023-01-18T09:36:28.583Z,8.23
2023-01-18T09:38:56.399Z,7.20
2023-01-18T09:41:39.359Z,9.10
2023-01-18T09:44:16.740Z,10.40
2023-01-18T09:46:45.671Z,11.10
2023-01-18T09:49:20.466Z,12.20
2023-01-18T09:52:04.604Z,16.20
2023-01-18T09:54:40.565Z,9.63
2023-01-18T09:57:38.024Z,8.38
2023-01-18T10:00:20.840Z,8.83
2023-01-18T10:02:53.574Z,8.32
2023-01-18T10:05:28.160Z,8.45
2023-01-18T10:08:04.868Z,9.07
2023-01-18T10:10:36.761Z,9.15
2023-01-18T10:13:32.620Z,9.73
2023-01-18T10:15:59.981Z,8.18
2023-01-18T10:18:27.526Z,9.32
2023-01-18T10:21:04.916Z,9.13
2023-01-18T10:23:41.209Z,9.23
2023-01-18T10:26:28.896Z,9.05
2023-01-18T10:29:14.428Z,8.60
2023-01-18T10:31:59.630Z,9.52
2023-01-18T10:34:39.344Z,7.03
2023-01-18T10:37:14.985Z,7.82
2023-01-18T10:39:52.044Z,8.05
2023-01-18T10:42:40.379Z,6.70
2023-01-18T10:45:21.588Z,5.97
2023-01-18T10:47:50.039Z,7.05
2023-01-18T10:50:38.833Z,6.43
2023-01-18T10:53:24.271Z,6.88
2023-01-18T10:56:06.942Z,7.63
2023-01-18T10:58:41.570Z,7.97
2023-01-18T11:01:34.478Z,6.60
2023-01-18T11:04:06.860Z,6.47
2023-01-18T11:06:54.970Z,6.50
2023-01-18T11:09:41.722Z,5.22
2023-01-18T11:12:45.552Z,5.72
2023-01-18T11:15:15.833Z,5.85
2023-01-18T11:18:06.517Z,5.70
2023-01-18T11:20:46.253Z,5.72
2023-01-18T11:23:21.639Z,4.82
2023-01-18T11:25:54.514Z,6.85
2023-01-18T11:28:27.754Z,6.80
2023-01-18T11:31:06.970Z,6.22
2023-01-18T11:33:34.983Z,7.55
2023-01-18T11:36:04.480Z,7.68
2023-01-18T11:38:34.177Z,6.47
2023-01-18T11:41:05.087Z,7.20
2023-01-18T11:43:36.165Z,6.15
2023-01-18T11:46:13.439Z,6.25
2023-01-18T11:48:56.134Z,7.53
2023-01-18T11:51:32.090Z,8.43
2023-01-18T11:54:26.781Z,9.50
2023-01-18T11:56:59.673Z,10.25
2023-01-18T11:59:33.831Z,10.00
2023-01-18T12:02:38.779Z,9.80
2023-01-18T12:05:25.735Z,10.00
2023-01-18T12:08:18.770Z,9.52
2023-01-18T12:11:03.009Z,10.45
2023-01-18T12:13:36.193Z,10.90
2023-01-18T12:16:16.160Z,24.05
2023-01-18T12:19:24.555Z,21.10
2023-01-18T12:22:10.632Z,21.45
2023-01-18T12:24:57.908Z,14.70
2023-01-18T12:30:31.196Z,15.25
2023-01-18T12:33:42.556Z,19.13
2023-01-18T12:36:31.846Z,26.40
2023-01-18T12:39:04.064Z,27.20
2023-01-18T12:41:48.889Z,39.22
2023-01-18T12:44:49.805Z,59.08
2023-01-18T12:47:24.598Z,25.85
2023-01-18T12:49:57.404Z,19.45
2023-01-18T12:52:25.627Z,16.13
2023-01-18T12:54:59.644Z,10.77
2023-01-18T12:57:29.830Z,8.05
2023-01-18T13:00:06.442Z,6.40
2023-01-18T13:02:40.719Z,5.10
2023-01-18T13:05:23.802Z,7.07
2023-01-18T13:08:23.947Z,17.55
2023-01-18T13:11:02.853Z,10.95
2023-01-18T13:13:30.681Z,10.95
2023-01-18T13:16:19.253Z,11.70
2023-01-18T13:19:00.226Z,12.90
2023-01-18T13:21:54.546Z,11.35
2023-01-18T13:24:24.547Z,11.82
2023-01-18T13:26:53.490Z,10.85
2023-01-18T13:29:26.339Z,11.05
2023-01-18T13:31:54.015Z,9.15
2023-01-18T13:34:24.681Z,9.45
2023-01-18T13:36:55.852Z,8.95
2023-01-18T13:39:32.811Z,9.00
2023-01-18T13:42:13.294Z,9.95
2023-01-18T13:44:50.049Z,9.82
2023-01-18T13:47:35.805Z,9.85
2023-01-18T13:50:03.017Z,13.18
2023-01-18T13:52:32.373Z,9.73
2023-01-18T13:55:02.600Z,11.18
2023-01-18T13:57:32.442Z,13.82
2023-01-18T14:00:00.280Z,10.43
2023-01-18T14:02:42.466Z,16.02
2023-01-18T14:05:25.775Z,11.52
2023-01-18T14:07:57.902Z,13.32
2023-01-18T14:10:31.667Z,16.15
2023-01-18T14:13:02.376Z,13.55
2023-01-18T14:15:52.446Z,14.75
2023-01-18T14:18:28.403Z,10.60
2023-01-18T14:21:01.077Z,8.73
2023-01-18T14:23:50.111Z,9.65
2023-01-18T14:26:19.496Z,10.70
2023-01-18T14:28:55.304Z,10.07
2023-01-18T14:31:29.534Z,8.95
2023-01-18T14:33:57.022Z,9.70
2023-01-18T14:36:29.001Z,9.68
2023-01-18T14:39:14.571Z,8.52
2023-01-18T14:41:44.868Z,7.78
2023-01-18T14:44:20.027Z,9.15
2023-01-18T14:46:55.603Z,12.07
2023-01-18T14:49:31.770Z,9.25
2023-01-18T14:51:59.415Z,12.68
2023-01-18T14:54:26.915Z,17.08
2023-01-18T14:57:05.546Z,18.42
2023-01-18T14:59:34.459Z,24.55
2023-01-18T15:02:13.880Z,21.73
2023-01-18T15:04:45.608Z,20.40
2023-01-18T15:07:26.368Z,22.45
2023-01-18T15:09:53.987Z,21.02
2023-01-18T15:12:29.059Z,18.58
2023-01-18T15:15:03.908Z,16.77
2023-01-18T15:17:31.898Z,13.57
2023-01-18T15:20:05.297Z,14.38
2023-01-18T15:22:36.705Z,13.82
2023-01-18T15:25:27.507Z,15.00
2023-01-18T15:27:57.982Z,14.73
2023-01-18T15:30:26.044Z,15.30
2023-01-18T15:32:58.744Z,15.38
2023-01-18T15:35:26.819Z,15.15
2023-01-18T15:37:54.176Z,15.07
2023-01-18T15:40:30.003Z,15.60
2023-01-18T15:43:07.818Z,17.65
2023-01-18T15:45:38.734Z,18.27
2023-01-18T15:48:15.336Z,17.25
2023-01-18T15:53:24.777Z,19.10
2023-01-18T15:55:55.080Z,20.17
2023-01-18T15:58:29.094Z,23.13
2023-01-18T16:01:01.008Z,23.10
2023-01-18T16:03:30.099Z,19.90
2023-01-18T16:06:18.908Z,21.05
2023-01-18T16:09:12.782Z,22.85
2023-01-18T16:11:49.869Z,21.45
2023-01-18T16:14:28.949Z,20.35
2023-01-18T16:17:05.556Z,15.75
2023-01-18T16:19:42.687Z,13.82
2023-01-18T16:22:25.872Z,13.18
2023-01-18T16:25:21.071Z,10.30
2023-01-18T16:27:58.281Z,9.18
2023-01-18T16:30:40.995Z,8.35
2023-01-18T16:33:16.727Z,9.52
2023-01-18T16:35:44.797Z,13.10
2023-01-18T16:38:14.512Z,14.77
2023-01-18T16:40:45.110Z,20.27
2023-01-18T16:43:29.393Z,20.65
2023-01-18T16:45:59.102Z,17.08
2023-01-18T16:48:28.283Z,13.45
2023-01-18T16:51:01.258Z,12.57
2023-01-18T16:53:29.234Z,12.85
2023-01-18T16:55:56.780Z,8.32
2023-01-18T16:58:24.372Z,8.90
2023-01-18T17:01:06.079Z,10.57
2023-01-18T17:03:34.501Z,18.67
2023-01-18T17:06:02.300Z,11.20
2023-01-18T17:08:29.891Z,10.48
2023-01-18T17:10:57.002Z,12.77
2023-01-18T17:13:24.653Z,13.80
2023-01-18T17:15:53.172Z,10.55
2023-01-18T17:18:25.621Z,13.15
2023-01-18T17:20:53.722Z,11.10
2023-01-18T17:23:21.771Z,18.30
2023-01-18T17:25:49.029Z,13.27
2023-01-18T17:28:19.000Z,15.07
2023-01-18T17:30:49.310Z,16.20
2023-01-18T17:33:22.817Z,11.52
2023-01-18T17:35:51.539Z,12.40
2023-01-18T17:38:25.718Z,13.38
2023-01-18T17:40:54.357Z,11.35
2023-01-18T17:43:32.678Z,13.30
2023-01-18T17:46:05.292Z,14.32
2023-01-18T17:48:33.324Z,10.70
2023-01-18T17:51:00.641Z,11.65
2023-01-18T17:53:28.182Z,12.77
2023-01-18T17:55:55.311Z,18.48
2023-01-18T17:58:22.725Z,12.80
2023-01-18T18:00:50.196Z,13.02
2023-01-18T18:03:17.751Z,11.15
2023-01-18T18:05:45.326Z,11.93
2023-01-18T18:08:12.813Z,12.90
2023-01-18T18:10:43.269Z,14.32
2023-01-18T18:13:10.736Z,13.13
2023-01-18T18:15:37.817Z,11.48
2023-01-18T18:18:07.455Z,10.18
2023-01-18T18:20:40.897Z,8.27
2023-01-18T18:23:08.465Z,8.13
2023-01-18T18:25:35.529Z,8.43
2023-01-18T18:28:03.018Z,12.20
2023-01-18T18:30:30.234Z,8.48
2023-01-18T18:32:58.080Z,10.23
2023-01-18T18:35:26.577Z,8.85
2023-01-18T18:37:55.612Z,10.18
2023-01-18T18:40:24.364Z,7.97
2023-01-18T18:43:02.040Z,7.28
2023-01-18T18:45:31.709Z,7.22
2023-01-18T18:48:00.124Z,7.15
2023-01-18T18:50:27.841Z,7.60
2023-01-18T18:52:55.269Z,10.98
2023-01-18T18:55:22.417Z,9.88
2023-01-18T18:57:50.167Z,9.05
2023-01-18T19:00:17.927Z,8.85
2023-01-18T19:02:45.876Z,8.00
2023-01-18T19:05:13.050Z,9.93
2023-01-18T19:07:42.481Z,8.80
2023-01-18T19:10:11.533Z,7.15
2023-01-18T19:12:38.935Z,9.70
2023-01-18T19:15:06.410Z,8.65
2023-01-18T19:17:33.865Z,6.85
2023-01-18T19:20:01.096Z,6.72
2023-01-18T19:22:28.363Z,7.72
2023-01-18T19:24:55.467Z,5.97
2023-01-18T19:27:24.572Z,7.15
2023-01-18T19:29:53.192Z,8.40
2023-01-18T19:32:20.792Z,8.63
2023-01-18T19:34:48.498Z,8.43
2023-01-18T19:37:15.783Z,6.78
2023-01-18T19:39:42.872Z,5.80
2023-01-18T19:42:10.283Z,5.95
2023-01-18T19:44:37.318Z,6.22
2023-01-18T19:47:04.703Z,6.10
2023-01-18T19:49:31.771Z,6.07
2023-01-18T19:51:59.171Z,5.88
2023-01-18T19:54:26.373Z,7.03
2023-01-18T19:56:53.774Z,5.95
2023-01-18T19:59:20.954Z,6.72
2023-01-18T20:01:48.492Z,8.82
2023-01-18T20:04:15.889Z,7.90
2023-01-18T20:06:45.069Z,7.95
2023-01-18T20:09:20.306Z,7.82
2023-01-18T20:11:49.584Z,6.95
2023-01-18T20:14:18.277Z,8.10
2023-01-18T20:16:46.440Z,7.25
2023-01-18T20:19:17.642Z,7.43
2023-01-18T20:21:45.766Z,7.43
2023-01-18T20:24:12.802Z,6.88
2023-01-18T20:26:41.929Z,6.57
2023-01-18T20:29:10.266Z,9.18
2023-01-18T20:31:39.372Z,8.00
2023-01-18T20:34:10.823Z,8.38
2023-01-18T20:36:38.303Z,8.05
2023-01-18T20:39:06.550Z,7.85
2023-01-18T20:41:34.239Z,7.65
2023-01-18T20:44:04.187Z,7.10
2023-01-18T20:46:31.550Z,8.27
2023-01-18T20:48:58.880Z,7.32
2023-01-18T20:51:27.291Z,8.18
2023-01-18T20:53:54.414Z,8.75
2023-01-18T20:56:30.027Z,8.45
2023-01-18T20:58:58.291Z,7.90
2023-01-18T21:01:32.031Z,8.85
2023-01-18T21:04:01.024Z,8.82
2023-01-18T21:06:29.372Z,7.93
2023-01-18T21:08:58.484Z,7.70
2023-01-18T21:11:26.907Z,8.10
2023-01-18T21:13:56.862Z,8.48
2023-01-18T21:16:25.590Z,9.20
2023-01-18T21:18:53.284Z,10.20
2023-01-18T21:21:20.742Z,8.30
2023-01-18T21:23:47.873Z,9.77
2023-01-18T21:26:15.744Z,9.55
2023-01-18T21:28:42.946Z,8.65
2023-01-18T21:31:10.889Z,7.65
2023-01-18T21:33:38.246Z,8.35
2023-01-18T21:36:23.542Z,7.25
2023-01-18T21:38:51.028Z,5.68
2023-01-18T21:41:37.154Z,5.57
2023-01-18T21:44:23.270Z,5.88
2023-01-18T21:46:52.199Z,6.55
2023-01-18T21:52:46.634Z,8.80
2023-01-18T21:55:15.374Z,9.50
2023-01-18T21:57:43.084Z,8.95
2023-01-18T22:00:11.251Z,9.63
2023-01-18T22:02:38.877Z,11.05
2023-01-18T22:05:08.548Z,10.60
2023-01-18T22:07:36.095Z,9.70
2023-01-18T22:10:06.006Z,8.88
2023-01-18T22:12:36.077Z,10.13
2023-01-18T22:15:06.841Z,10.43
2023-01-18T22:17:34.095Z,11.10
2023-01-18T22:20:01.899Z,11.38
2023-01-18T22:22:29.263Z,11.20
2023-01-18T22:24:57.116Z,12.88
2023-01-18T22:27:24.180Z,14.20
2023-01-18T22:29:51.724Z,11.88
2023-01-18T22:32:18.885Z,11.77
2023-01-18T22:34:46.569Z,13.00
2023-01-18T22:37:13.674Z,13.77
2023-01-18T22:39:41.098Z,13.50
2023-01-18T22:42:08.299Z,11.88
2023-01-18T22:44:37.070Z,14.23
2023-01-18T22:47:04.439Z,12.32
2023-01-18T22:49:31.936Z,12.50
2023-01-18T22:51:58.959Z,12.57
2023-01-18T22:54:28.320Z,12.57
2023-01-18T22:56:55.399Z,13.90
2023-01-18T22:59:22.893Z,14.35
2023-01-18T23:01:50.074Z,13.73
2023-01-18T23:04:17.420Z,14.55
2023-01-18T23:06:48.114Z,14.18
2023-01-18T23:09:17.555Z,13.57
2023-01-18T23:11:45.581Z,13.85
2023-01-18T23:14:32.214Z,16.25
2023-01-18T23:17:18.085Z,19.67
2023-01-18T23:19:45.775Z,22.08
2023-01-18T23:22:13.000Z,19.38
2023-01-18T23:24:40.406Z,18.92
2023-01-18T23:27:09.937Z,19.92
2023-01-18T23:29:37.538Z,19.15
2023-01-18T23:32:05.128Z,22.17
2023-01-18T23:34:32.498Z,22.52
2023-01-18T23:36:59.493Z,21.75
2023-01-18T23:39:45.379Z,21.00
2023-01-18T23:42:31.144Z,19.15
2023-01-18T23:45:16.928Z,18.50
2023-01-18T23:48:03.129Z,17.50
2023-01-18T23:50:49.630Z,17.90
2023-01-18T23:53:35.444Z,20.15
2023-01-18T23:56:02.795Z,18.45
2023-01-18T23:58:29.886Z,19.88
